sensor_id;sensor_type;location;lat;lon;timestamp;P1;durP1;ratioP1;P2;durP2;ratioP2
76208;SDS011;64990;51.698;-0.292;2023-11-21T00:00:56;13.00;;;5.35;;
76208;SDS011;64990;51.698;-0.292;2023-11-21T00:03:23;9.80;;;5.85;;
76208;SDS011;64990;51.698;-0.292;2023-11-21T00:05:50;30.27;;;6.80;;
76208;SDS011;64990;51.698;-0.292;2023-11-21T00:08:16;28.92;;;7.43;;
76208;SDS011;64990;51.698;-0.292;2023-11-21T00:10:42;15.25;;;6.18;;
76208;SDS011;64990;51.698;-0.292;2023-11-21T00:13:09;16.27;;;7.05;;
76208;SDS011;64990;51.698;-0.292;2023-11-21T00:15:37;11.10;;;5.47;;
76208;SDS011;64990;51.698;-0.292;2023-11-21T00:18:03;20.65;;;6.45;;
76208;SDS011;64990;51.698;-0.292;2023-11-21T00:20:30;11.65;;;6.30;;
76208;SDS011;64990;51.698;-0.292;2023-11-21T00:22:56;8.60;;;4.93;;
76208;SDS011;64990;51.698;-0.292;2023-11-21T00:25:22;11.07;;;5.75;;
76208;SDS011;64990;51.698;-0.292;2023-11-21T00:27:48;11.98;;;5.97;;
76208;SDS011;64990;51.698;-0.292;2023-11-21T00:30:14;9.88;;;5.15;;
76208;SDS011;64990;51.698;-0.292;2023-11-21T00:32:40;11.57;;;5.45;;
76208;SDS011;64990;51.698;-0.292;2023-11-21T00:35:06;13.43;;;6.43;;
76208;SDS011;64990;51.698;-0.292;2023-11-21T00:37:33;12.15;;;6.60;;
76208;SDS011;64990;51.698;-0.292;2023-11-21T00:39:59;10.77;;;5.70;;
76208;SDS011;64990;51.698;-0.292;2023-11-21T00:42:25;16.63;;;6.57;;
76208;SDS011;64990;51.698;-0.292;2023-11-21T00:44:51;13.38;;;7.93;;
76208;SDS011;64990;51.698;-0.292;2023-11-21T00:47:17;9.35;;;6.35;;
76208;SDS011;64990;51.698;-0.292;2023-11-21T00:49:43;12.52;;;7.05;;
76208;SDS011;64990;51.698;-0.292;2023-11-21T00:52:09;11.48;;;7.38;;
76208;SDS011;64990;51.698;-0.292;2023-11-21T00:54:35;12.50;;;7.43;;
76208;SDS011;64990;51.698;-0.292;2023-11-21T00:57:01;11.68;;;7.55;;
76208;SDS011;64990;51.698;-0.292;2023-11-21T00:59:28;11.43;;;6.97;;
76208;SDS011;64990;51.698;-0.292;2023-11-21T01:01:55;11.75;;;5.85;;
76208;SDS011;64990;51.698;-0.292;2023-11-21T01:04:21;12.65;;;6.50;;
76208;SDS011;64990;51.698;-0.292;2023-11-21T01:06:47;13.93;;;6.90;;
76208;SDS011;64990;51.698;-0.292;2023-11-21T01:09:13;11.35;;;5.97;;
76208;SDS011;64990;51.698;-0.292;2023-11-21T01:11:39;9.40;;;5.32;;
76208;SDS011;64990;51.698;-0.292;2023-11-21T01:14:06;12.45;;;6.43;;
76208;SDS011;64990;51.698;-0.292;2023-11-21T01:16:34;7.35;;;4.80;;
76208;SDS011;64990;51.698;-0.292;2023-11-21T01:19:00;8.98;;;5.03;;
76208;SDS011;64990;51.698;-0.292;2023-11-21T01:21:26;9.32;;;5.07;;
76208;SDS011;64990;51.698;-0.292;2023-11-21T01:23:53;12.48;;;5.47;;
76208;SDS011;64990;51.698;-0.292;2023-11-21T01:26:20;10.80;;;5.32;;
76208;SDS011;64990;51.698;-0.292;2023-11-21T01:28:46;9.00;;;4.93;;
76208;SDS011;64990;51.698;-0.292;2023-11-21T01:31:14;10.13;;;4.85;;
76208;SDS011;64990;51.698;-0.292;2023-11-21T01:33:40;10.60;;;4.47;;
76208;SDS011;64990;51.698;-0.292;2023-11-21T01:36:06;8.43;;;4.88;;
76208;SDS011;64990;51.698;-0.292;2023-11-21T01:38:33;8.20;;;5.25;;
76208;SDS011;64990;51.698;-0.292;2023-11-21T01:41:00;7.55;;;4.07;;
76208;SDS011;64990;51.698;-0.292;2023-11-21T01:43:26;9.57;;;4.30;;
76208;SDS011;64990;51.698;-0.292;2023-11-21T01:45:55;5.43;;;3.42;;
76208;SDS011;64990;51.698;-0.292;2023-11-21T01:48:22;6.25;;;3.83;;
76208;SDS011;64990;51.698;-0.292;2023-11-21T01:50:48;4.55;;;3.20;;
76208;SDS011;64990;51.698;-0.292;2023-11-21T01:53:14;7.25;;;4.60;;
76208;SDS011;64990;51.698;-0.292;2023-11-21T01:55:40;8.48;;;3.63;;
76208;SDS011;64990;51.698;-0.292;2023-11-21T01:58:07;7.78;;;3.65;;
76208;SDS011;64990;51.698;-0.292;2023-11-21T02:00:34;5.90;;;3.35;;
76208;SDS011;64990;51.698;-0.292;2023-11-21T02:03:00;6.93;;;3.28;;
76208;SDS011;64990;51.698;-0.292;2023-11-21T02:05:29;6.15;;;3.45;;
76208;SDS011;64990;51.698;-0.292;2023-11-21T02:07:55;3.42;;;2.72;;
76208;SDS011;64990;51.698;-0.292;2023-11-21T02:10:21;6.70;;;3.08;;
76208;SDS011;64990;51.698;-0.292;2023-11-21T02:12:48;3.00;;;2.00;;
76208;SDS011;64990;51.698;-0.292;2023-11-21T02:15:17;2.35;;;1.75;;
76208;SDS011;64990;51.698;-0.292;2023-11-21T02:17:47;2.05;;;1.77;;
76208;SDS011;64990;51.698;-0.292;2023-11-21T02:20:16;4.68;;;2.72;;
76208;SDS011;64990;51.698;-0.292;2023-11-21T02:22:43;6.20;;;2.28;;
76208;SDS011;64990;51.698;-0.292;2023-11-21T02:25:09;6.95;;;2.03;;
76208;SDS011;64990;51.698;-0.292;2023-11-21T02:27:36;2.30;;;1.83;;
76208;SDS011;64990;51.698;-0.292;2023-11-21T02:30:03;3.63;;;1.85;;
76208;SDS011;64990;51.698;-0.292;2023-11-21T02:32:30;5.40;;;1.85;;
76208;SDS011;64990;51.698;-0.292;2023-11-21T02:34:56;10.43;;;2.30;;
76208;SDS011;64990;51.698;-0.292;2023-11-21T02:37:26;5.20;;;2.50;;
76208;SDS011;64990;51.698;-0.292;2023-11-21T02:39:52;4.15;;;2.60;;
76208;SDS011;64990;51.698;-0.292;2023-11-21T02:42:18;3.42;;;2.25;;
76208;SDS011;64990;51.698;-0.292;2023-11-21T02:44:44;3.65;;;2.40;;
76208;SDS011;64990;51.698;-0.292;2023-11-21T02:47:10;7.45;;;2.53;;
76208;SDS011;64990;51.698;-0.292;2023-11-21T02:49:36;5.78;;;3.00;;
76208;SDS011;64990;51.698;-0.292;2023-11-21T02:52:02;8.52;;;3.05;;
76208;SDS011;64990;51.698;-0.292;2023-11-21T02:54:28;4.60;;;3.10;;
76208;SDS011;64990;51.698;-0.292;2023-11-21T02:56:55;4.38;;;2.30;;
76208;SDS011;64990;51.698;-0.292;2023-11-21T02:59:21;4.82;;;1.80;;
76208;SDS011;64990;51.698;-0.292;2023-11-21T03:01:47;4.50;;;2.72;;
76208;SDS011;64990;51.698;-0.292;2023-11-21T03:04:14;4.57;;;3.00;;
76208;SDS011;64990;51.698;-0.292;2023-11-21T03:06:43;2.65;;;1.95;;
76208;SDS011;64990;51.698;-0.292;2023-11-21T03:09:09;11.52;;;3.28;;
76208;SDS011;64990;51.698;-0.292;2023-11-21T03:11:37;8.88;;;3.58;;
76208;SDS011;64990;51.698;-0.292;2023-11-21T03:14:03;2.50;;;1.92;;
76208;SDS011;64990;51.698;-0.292;2023-11-21T03:16:30;3.42;;;2.45;;
76208;SDS011;64990;51.698;-0.292;2023-11-21T03:18:56;4.53;;;2.58;;
76208;SDS011;64990;51.698;-0.292;2023-11-21T03:21:22;5.88;;;3.33;;
76208;SDS011;64990;51.698;-0.292;2023-11-21T03:23:48;3.05;;;1.60;;
76208;SDS011;64990;51.698;-0.292;2023-11-21T03:26:14;3.50;;;2.22;;
76208;SDS011;64990;51.698;-0.292;2023-11-21T03:28:41;1.30;;;1.20;;
76208;SDS011;64990;51.698;-0.292;2023-11-21T03:31:07;3.28;;;1.88;;
76208;SDS011;64990;51.698;-0.292;2023-11-21T03:33:36;7.30;;;1.05;;
76208;SDS011;64990;51.698;-0.292;2023-11-21T03:36:02;1.15;;;1.05;;
76208;SDS011;64990;51.698;-0.292;2023-11-21T03:38:29;2.45;;;1.65;;
76208;SDS011;64990;51.698;-0.292;2023-11-21T03:40:55;4.80;;;1.63;;
76208;SDS011;64990;51.698;-0.292;2023-11-21T03:43:21;2.33;;;1.33;;
76208;SDS011;64990;51.698;-0.292;2023-11-21T03:45:47;3.13;;;2.35;;
76208;SDS011;64990;51.698;-0.292;2023-11-21T03:48:13;1.65;;;1.27;;
76208;SDS011;64990;51.698;-0.292;2023-11-21T03:50:39;2.83;;;1.10;;
76208;SDS011;64990;51.698;-0.292;2023-11-21T03:53:05;2.97;;;1.42;;
76208;SDS011;64990;51.698;-0.292;2023-11-21T03:55:31;1.00;;;1.00;;
76208;SDS011;64990;51.698;-0.292;2023-11-21T03:57:58;3.13;;;1.23;;
76208;SDS011;64990;51.698;-0.292;2023-11-21T04:00:24;1.33;;;1.20;;
76208;SDS011;64990;51.698;-0.292;2023-11-21T04:02:52;1.13;;;1.02;;
76208;SDS011;64990;51.698;-0.292;2023-11-21T04:05:19;4.90;;;1.70;;
76208;SDS011;64990;51.698;-0.292;2023-11-21T04:07:46;3.97;;;2.20;;
76208;SDS011;64990;51.698;-0.292;2023-11-21T04:10:12;3.13;;;2.03;;
76208;SDS011;64990;51.698;-0.292;2023-11-21T04:12:38;4.75;;;1.70;;
76208;SDS011;64990;51.698;-0.292;2023-11-21T04:15:04;2.30;;;1.58;;
76208;SDS011;64990;51.698;-0.292;2023-11-21T04:17:30;4.03;;;2.13;;
76208;SDS011;64990;51.698;-0.292;2023-11-21T04:19:56;4.82;;;2.22;;
76208;SDS011;64990;51.698;-0.292;2023-11-21T04:22:23;4.28;;;2.10;;
76208;SDS011;64990;51.698;-0.292;2023-11-21T04:24:49;2.42;;;2.03;;
76208;SDS011;64990;51.698;-0.292;2023-11-21T04:27:15;2.40;;;1.83;;
76208;SDS011;64990;51.698;-0.292;2023-11-21T04:29:43;2.53;;;2.08;;
76208;SDS011;64990;51.698;-0.292;2023-11-21T04:32:09;4.63;;;2.42;;
76208;SDS011;64990;51.698;-0.292;2023-11-21T04:34:35;5.00;;;1.63;;
76208;SDS011;64990;51.698;-0.292;2023-11-21T04:37:02;2.65;;;2.28;;
76208;SDS011;64990;51.698;-0.292;2023-11-21T04:39:31;5.30;;;1.88;;
76208;SDS011;64990;51.698;-0.292;2023-11-21T04:41:57;10.73;;;3.53;;
76208;SDS011;64990;51.698;-0.292;2023-11-21T04:44:23;12.68;;;2.60;;
76208;SDS011;64990;51.698;-0.292;2023-11-21T04:46:49;4.43;;;2.00;;
76208;SDS011;64990;51.698;-0.292;2023-11-21T04:49:15;3.00;;;1.85;;
76208;SDS011;64990;51.698;-0.292;2023-11-21T04:51:41;4.95;;;2.22;;
76208;SDS011;64990;51.698;-0.292;2023-11-21T04:54:07;3.45;;;2.25;;
76208;SDS011;64990;51.698;-0.292;2023-11-21T04:56:34;5.10;;;1.80;;
76208;SDS011;64990;51.698;-0.292;2023-11-21T04:59:00;3.28;;;2.13;;
76208;SDS011;64990;51.698;-0.292;2023-11-21T05:01:26;2.55;;;2.03;;
76208;SDS011;64990;51.698;-0.292;2023-11-21T05:03:52;5.47;;;2.33;;
76208;SDS011;64990;51.698;-0.292;2023-11-21T05:06:18;5.90;;;2.47;;
76208;SDS011;64990;51.698;-0.292;2023-11-21T05:08:45;6.78;;;2.38;;
76208;SDS011;64990;51.698;-0.292;2023-11-21T05:11:11;9.30;;;2.28;;
76208;SDS011;64990;51.698;-0.292;2023-11-21T05:13:37;2.15;;;1.73;;
76208;SDS011;64990;51.698;-0.292;2023-11-21T05:16:04;5.22;;;1.80;;
76208;SDS011;64990;51.698;-0.292;2023-11-21T05:18:31;4.15;;;1.80;;
76208;SDS011;64990;51.698;-0.292;2023-11-21T05:20:57;2.88;;;2.13;;
76208;SDS011;64990;51.698;-0.292;2023-11-21T05:23:23;1.50;;;1.33;;
76208;SDS011;64990;51.698;-0.292;2023-11-21T05:25:49;4.45;;;1.40;;
76208;SDS011;64990;51.698;-0.292;2023-11-21T05:28:16;2.50;;;1.63;;
76208;SDS011;64990;51.698;-0.292;2023-11-21T05:30:42;20.10;;;2.85;;
76208;SDS011;64990;51.698;-0.292;2023-11-21T05:33:09;1.85;;;1.50;;
76208;SDS011;64990;51.698;-0.292;2023-11-21T05:35:35;5.20;;;1.83;;
76208;SDS011;64990;51.698;-0.292;2023-11-21T05:38:01;4.22;;;1.20;;
76208;SDS011;64990;51.698;-0.292;2023-11-21T05:40:27;1.95;;;1.17;;
76208;SDS011;64990;51.698;-0.292;2023-11-21T05:42:55;3.05;;;1.52;;
76208;SDS011;64990;51.698;-0.292;2023-11-21T05:45:21;2.85;;;1.70;;
76208;SDS011;64990;51.698;-0.292;2023-11-21T05:47:47;5.43;;;2.35;;
76208;SDS011;64990;51.698;-0.292;2023-11-21T05:50:14;8.10;;;1.63;;
76208;SDS011;64990;51.698;-0.292;2023-11-21T05:52:41;8.02;;;1.73;;
76208;SDS011;64990;51.698;-0.292;2023-11-21T05:55:07;3.28;;;1.55;;
76208;SDS011;64990;51.698;-0.292;2023-11-21T05:57:34;10.07;;;2.88;;
76208;SDS011;64990;51.698;-0.292;2023-11-21T06:00:06;2.58;;;1.77;;
76208;SDS011;64990;51.698;-0.292;2023-11-21T06:02:39;10.68;;;1.52;;
76208;SDS011;64990;51.698;-0.292;2023-11-21T06:05:06;15.15;;;2.30;;
76208;SDS011;64990;51.698;-0.292;2023-11-21T06:07:32;3.92;;;2.08;;
76208;SDS011;64990;51.698;-0.292;2023-11-21T06:09:58;6.72;;;1.70;;
76208;SDS011;64990;51.698;-0.292;2023-11-21T06:12:24;3.08;;;1.70;;
76208;SDS011;64990;51.698;-0.292;2023-11-21T06:14:50;10.85;;;1.90;;
76208;SDS011;64990;51.698;-0.292;2023-11-21T06:17:16;3.80;;;1.70;;
76208;SDS011;64990;51.698;-0.292;2023-11-21T06:19:43;2.08;;;1.40;;
76208;SDS011;64990;51.698;-0.292;2023-11-21T06:22:11;6.90;;;2.35;;
76208;SDS011;64990;51.698;-0.292;2023-11-21T06:24:37;8.95;;;2.45;;
76208;SDS011;64990;51.698;-0.292;2023-11-21T06:27:03;5.93;;;2.10;;
76208;SDS011;64990;51.698;-0.292;2023-11-21T06:29:30;8.85;;;3.03;;
76208;SDS011;64990;51.698;-0.292;2023-11-21T06:31:57;10.55;;;2.08;;
76208;SDS011;64990;51.698;-0.292;2023-11-21T06:34:23;6.20;;;1.85;;
76208;SDS011;64990;51.698;-0.292;2023-11-21T06:36:49;3.33;;;1.77;;
76208;SDS011;64990;51.698;-0.292;2023-11-21T06:39:16;7.38;;;3.05;;
76208;SDS011;64990;51.698;-0.292;2023-11-21T06:41:42;7.32;;;2.83;;
76208;SDS011;64990;51.698;-0.292;2023-11-21T06:44:08;2.83;;;2.03;;
76208;SDS011;64990;51.698;-0.292;2023-11-21T06:46:34;6.00;;;3.28;;
76208;SDS011;64990;51.698;-0.292;2023-11-21T06:49:01;15.30;;;2.33;;
76208;SDS011;64990;51.698;-0.292;2023-11-21T06:51:27;3.78;;;1.90;;
76208;SDS011;64990;51.698;-0.292;2023-11-21T06:53:53;20.25;;;3.50;;
76208;SDS011;64990;51.698;-0.292;2023-11-21T06:56:19;9.27;;;3.10;;
76208;SDS011;64990;51.698;-0.292;2023-11-21T06:58:45;4.60;;;2.40;;
76208;SDS011;64990;51.698;-0.292;2023-11-21T07:01:12;3.88;;;2.22;;
76208;SDS011;64990;51.698;-0.292;2023-11-21T07:03:38;4.20;;;2.38;;
76208;SDS011;64990;51.698;-0.292;2023-11-21T07:06:06;6.18;;;1.65;;
76208;SDS011;64990;51.698;-0.292;2023-11-21T07:08:32;9.82;;;2.47;;
76208;SDS011;64990;51.698;-0.292;2023-11-21T07:10:58;9.63;;;2.95;;
76208;SDS011;64990;51.698;-0.292;2023-11-21T07:13:25;3.55;;;1.67;;
76208;SDS011;64990;51.698;-0.292;2023-11-21T07:15:51;4.75;;;2.22;;
76208;SDS011;64990;51.698;-0.292;2023-11-21T07:18:17;3.88;;;1.92;;
76208;SDS011;64990;51.698;-0.292;2023-11-21T07:20:43;12.60;;;2.95;;
76208;SDS011;64990;51.698;-0.292;2023-11-21T07:23:09;8.23;;;2.03;;
76208;SDS011;64990;51.698;-0.292;2023-11-21T07:25:35;4.45;;;1.70;;
76208;SDS011;64990;51.698;-0.292;2023-11-21T07:28:01;3.60;;;1.80;;
76208;SDS011;64990;51.698;-0.292;2023-11-21T07:30:28;9.90;;;1.77;;
76208;SDS011;64990;51.698;-0.292;2023-11-21T07:32:54;10.38;;;2.85;;
76208;SDS011;64990;51.698;-0.292;2023-11-21T07:35:20;3.78;;;1.77;;
76208;SDS011;64990;51.698;-0.292;2023-11-21T07:37:46;5.72;;;1.50;;
76208;SDS011;64990;51.698;-0.292;2023-11-21T07:40:13;7.03;;;2.58;;
76208;SDS011;64990;51.698;-0.292;2023-11-21T07:42:40;4.38;;;1.75;;
76208;SDS011;64990;51.698;-0.292;2023-11-21T07:45:07;10.60;;;1.63;;
76208;SDS011;64990;51.698;-0.292;2023-11-21T07:47:33;2.53;;;1.42;;
76208;SDS011;64990;51.698;-0.292;2023-11-21T07:50:00;4.43;;;2.15;;
76208;SDS011;64990;51.698;-0.292;2023-11-21T07:52:28;4.45;;;1.38;;
76208;SDS011;64990;51.698;-0.292;2023-11-21T07:54:54;2.25;;;1.55;;
76208;SDS011;64990;51.698;-0.292;2023-11-21T07:57:20;4.95;;;1.95;;
76208;SDS011;64990;51.698;-0.292;2023-11-21T07:59:46;4.70;;;1.70;;
76208;SDS011;64990;51.698;-0.292;2023-11-21T08:02:12;4.88;;;2.20;;
76208;SDS011;64990;51.698;-0.292;2023-11-21T08:04:38;2.33;;;1.25;;
76208;SDS011;64990;51.698;-0.292;2023-11-21T08:07:04;3.38;;;1.45;;
76208;SDS011;64990;51.698;-0.292;2023-11-21T08:09:30;14.88;;;3.63;;
76208;SDS011;64990;51.698;-0.292;2023-11-21T08:11:56;6.65;;;1.70;;
76208;SDS011;64990;51.698;-0.292;2023-11-21T08:14:22;1.40;;;1.30;;
76208;SDS011;64990;51.698;-0.292;2023-11-21T08:16:50;1.60;;;0.93;;
76208;SDS011;64990;51.698;-0.292;2023-11-21T08:19:17;1.88;;;1.10;;
76208;SDS011;64990;51.698;-0.292;2023-11-21T08:21:43;6.88;;;1.05;;
76208;SDS011;64990;51.698;-0.292;2023-11-21T08:24:11;5.30;;;1.13;;
76208;SDS011;64990;51.698;-0.292;2023-11-21T08:26:37;10.77;;;1.88;;
76208;SDS011;64990;51.698;-0.292;2023-11-21T08:29:03;1.67;;;1.25;;
76208;SDS011;64990;51.698;-0.292;2023-11-21T08:31:32;16.60;;;2.15;;
76208;SDS011;64990;51.698;-0.292;2023-11-21T08:33:58;8.07;;;1.88;;
76208;SDS011;64990;51.698;-0.292;2023-11-21T08:36:28;3.42;;;1.77;;
76208;SDS011;64990;51.698;-0.292;2023-11-21T08:38:54;1.08;;;1.00;;
76208;SDS011;64990;51.698;-0.292;2023-11-21T08:41:20;2.20;;;1.17;;
76208;SDS011;64990;51.698;-0.292;2023-11-21T08:43:49;3.35;;;1.55;;
76208;SDS011;64990;51.698;-0.292;2023-11-21T08:46:16;4.18;;;1.38;;
76208;SDS011;64990;51.698;-0.292;2023-11-21T08:48:43;8.10;;;1.10;;
76208;SDS011;64990;51.698;-0.292;2023-11-21T08:51:11;7.45;;;1.75;;
76208;SDS011;64990;51.698;-0.292;2023-11-21T08:53:39;4.18;;;1.40;;
76208;SDS011;64990;51.698;-0.292;2023-11-21T08:56:05;5.60;;;1.40;;
76208;SDS011;64990;51.698;-0.292;2023-11-21T08:58:32;3.45;;;1.60;;
76208;SDS011;64990;51.698;-0.292;2023-11-21T09:00:59;2.80;;;1.02;;
76208;SDS011;64990;51.698;-0.292;2023-11-21T09:03:25;5.88;;;1.67;;
76208;SDS011;64990;51.698;-0.292;2023-11-21T09:05:51;5.40;;;1.42;;
76208;SDS011;64990;51.698;-0.292;2023-11-21T09:08:18;2.83;;;1.65;;
76208;SDS011;64990;51.698;-0.292;2023-11-21T09:10:44;4.20;;;1.75;;
76208;SDS011;64990;51.698;-0.292;2023-11-21T09:13:12;7.22;;;1.65;;
76208;SDS011;64990;51.698;-0.292;2023-11-21T09:15:38;3.42;;;1.70;;
76208;SDS011;64990;51.698;-0.292;2023-11-21T09:18:05;2.60;;;2.30;;
76208;SDS011;64990;51.698;-0.292;2023-11-21T09:20:31;2.65;;;1.38;;
76208;SDS011;64990;51.698;-0.292;2023-11-21T09:22:57;4.15;;;1.75;;
76208;SDS011;64990;51.698;-0.292;2023-11-21T09:25:23;6.05;;;2.22;;
76208;SDS011;64990;51.698;-0.292;2023-11-21T09:27:49;8.50;;;1.70;;
76208;SDS011;64990;51.698;-0.292;2023-11-21T09:30:16;3.35;;;1.42;;
76208;SDS011;64990;51.698;-0.292;2023-11-21T09:32:42;3.42;;;1.73;;
76208;SDS011;64990;51.698;-0.292;2023-11-21T09:35:10;5.82;;;1.60;;
76208;SDS011;64990;51.698;-0.292;2023-11-21T09:37:39;3.58;;;1.95;;
76208;SDS011;64990;51.698;-0.292;2023-11-21T09:40:05;6.00;;;1.58;;
76208;SDS011;64990;51.698;-0.292;2023-11-21T09:42:43;3.33;;;1.65;;
76208;SDS011;64990;51.698;-0.292;2023-11-21T09:50:16;4.40;;;1.30;;
76208;SDS011;64990;51.698;-0.292;2023-11-21T09:55:29;1.83;;;1.20;;
76208;SDS011;64990;51.698;-0.292;2023-11-21T09:58:01;2.83;;;1.33;;
76208;SDS011;64990;51.698;-0.292;2023-11-21T10:00:28;6.47;;;1.60;;
76208;SDS011;64990;51.698;-0.292;2023-11-21T10:02:58;5.13;;;1.67;;
76208;SDS011;64990;51.698;-0.292;2023-11-21T10:05:24;2.50;;;1.00;;
76208;SDS011;64990;51.698;-0.292;2023-11-21T10:07:51;2.95;;;1.33;;
76208;SDS011;64990;51.698;-0.292;2023-11-21T10:10:18;1.00;;;0.85;;
76208;SDS011;64990;51.698;-0.292;2023-11-21T10:12:50;2.97;;;1.15;;
76208;SDS011;64990;51.698;-0.292;2023-11-21T10:15:21;1.17;;;1.00;;
76208;SDS011;64990;51.698;-0.292;2023-11-21T10:17:48;1.80;;;1.23;;
76208;SDS011;64990;51.698;-0.292;2023-11-21T10:20:15;1.27;;;1.15;;
76208;SDS011;64990;51.698;-0.292;2023-11-21T10:22:41;1.40;;;1.30;;
76208;SDS011;64990;51.698;-0.292;2023-11-21T10:25:08;1.55;;;1.00;;
76208;SDS011;64990;51.698;-0.292;2023-11-21T10:27:35;3.90;;;1.05;;
76208;SDS011;64990;51.698;-0.292;2023-11-21T10:30:05;1.08;;;0.98;;
76208;SDS011;64990;51.698;-0.292;2023-11-21T10:32:31;4.43;;;1.73;;
76208;SDS011;64990;51.698;-0.292;2023-11-21T10:34:57;1.10;;;0.93;;
76208;SDS011;64990;51.698;-0.292;2023-11-21T10:37:25;1.10;;;1.02;;
76208;SDS011;64990;51.698;-0.292;2023-11-21T10:40:02;2.47;;;0.70;;
76208;SDS011;64990;51.698;-0.292;2023-11-21T10:42:31;1.30;;;1.00;;
76208;SDS011;64990;51.698;-0.292;2023-11-21T10:44:57;2.38;;;1.02;;
76208;SDS011;64990;51.698;-0.292;2023-11-21T10:47:23;0.98;;;0.90;;
76208;SDS011;64990;51.698;-0.292;2023-11-21T10:49:51;2.33;;;1.10;;
76208;SDS011;64990;51.698;-0.292;2023-11-21T10:52:20;3.33;;;0.90;;
76208;SDS011;64990;51.698;-0.292;2023-11-21T10:54:46;2.75;;;1.83;;
76208;SDS011;64990;51.698;-0.292;2023-11-21T10:57:13;1.95;;;0.90;;
76208;SDS011;64990;51.698;-0.292;2023-11-21T10:59:44;1.38;;;0.85;;
76208;SDS011;64990;51.698;-0.292;2023-11-21T11:02:24;0.93;;;0.82;;
76208;SDS011;64990;51.698;-0.292;2023-11-21T11:04:53;4.70;;;0.95;;
76208;SDS011;64990;51.698;-0.292;2023-11-21T11:07:21;1.02;;;0.93;;
76208;SDS011;64990;51.698;-0.292;2023-11-21T11:09:47;1.02;;;0.80;;
76208;SDS011;64990;51.698;-0.292;2023-11-21T11:12:14;2.22;;;0.90;;
76208;SDS011;64990;51.698;-0.292;2023-11-21T11:14:42;1.00;;;0.60;;
76208;SDS011;64990;51.698;-0.292;2023-11-21T11:17:09;5.07;;;0.90;;
76208;SDS011;64990;51.698;-0.292;2023-11-21T11:19:36;3.35;;;0.88;;
76208;SDS011;64990;51.698;-0.292;2023-11-21T11:30:01;2.38;;;0.70;;
76208;SDS011;64990;51.698;-0.292;2023-11-21T11:35:04;1.02;;;0.45;;
76208;SDS011;64990;51.698;-0.292;2023-11-21T11:37:31;0.90;;;0.85;;
76208;SDS011;64990;51.698;-0.292;2023-11-21T11:39:58;0.82;;;0.82;;
76208;SDS011;64990;51.698;-0.292;2023-11-21T11:42:25;1.17;;;1.02;;
76208;SDS011;64990;51.698;-0.292;2023-11-21T11:44:52;1.65;;;0.98;;
76208;SDS011;64990;51.698;-0.292;2023-11-21T11:47:38;1.23;;;0.80;;
76208;SDS011;64990;51.698;-0.292;2023-11-21T11:50:08;0.75;;;0.75;;
76208;SDS011;64990;51.698;-0.292;2023-11-21T11:52:45;1.38;;;1.00;;
76208;SDS011;64990;51.698;-0.292;2023-11-21T11:55:12;1.23;;;0.95;;
76208;SDS011;64990;51.698;-0.292;2023-11-21T11:57:39;4.03;;;1.30;;
76208;SDS011;64990;51.698;-0.292;2023-11-21T12:00:19;1.20;;;1.00;;
76208;SDS011;64990;51.698;-0.292;2023-11-21T12:02:50;1.23;;;1.13;;
76208;SDS011;64990;51.698;-0.292;2023-11-21T12:05:17;6.72;;;1.48;;
76208;SDS011;64990;51.698;-0.292;2023-11-21T12:07:55;2.42;;;1.65;;
76208;SDS011;64990;51.698;-0.292;2023-11-21T12:10:25;1.30;;;1.20;;
76208;SDS011;64990;51.698;-0.292;2023-11-21T12:12:54;2.10;;;1.65;;
76208;SDS011;64990;51.698;-0.292;2023-11-21T12:15:20;1.85;;;1.20;;
76208;SDS011;64990;51.698;-0.292;2023-11-21T12:17:47;0.90;;;0.65;;
76208;SDS011;64990;51.698;-0.292;2023-11-21T12:20:20;4.18;;;0.57;;
76208;SDS011;64990;51.698;-0.292;2023-11-21T12:22:48;0.70;;;0.70;;
76208;SDS011;64990;51.698;-0.292;2023-11-21T12:25:15;1.30;;;0.40;;
76208;SDS011;64990;51.698;-0.292;2023-11-21T12:27:43;6.13;;;1.33;;
76208;SDS011;64990;51.698;-0.292;2023-11-21T12:30:11;1.10;;;0.65;;
76208;SDS011;64990;51.698;-0.292;2023-11-21T12:32:41;4.55;;;0.90;;
76208;SDS011;64990;51.698;-0.292;2023-11-21T12:35:08;2.17;;;0.70;;
76208;SDS011;64990;51.698;-0.292;2023-11-21T12:37:36;3.67;;;0.60;;
76208;SDS011;64990;51.698;-0.292;2023-11-21T12:40:03;4.50;;;0.98;;
76208;SDS011;64990;51.698;-0.292;2023-11-21T12:42:30;2.33;;;0.57;;
76208;SDS011;64990;51.698;-0.292;2023-11-21T12:47:55;6.93;;;0.90;;
76208;SDS011;64990;51.698;-0.292;2023-11-21T12:50:24;1.65;;;0.80;;
76208;SDS011;64990;51.698;-0.292;2023-11-21T12:52:54;1.75;;;1.13;;
76208;SDS011;64990;51.698;-0.292;2023-11-21T12:55:23;2.17;;;0.80;;
76208;SDS011;64990;51.698;-0.292;2023-11-21T12:57:54;5.57;;;0.55;;
76208;SDS011;64990;51.698;-0.292;2023-11-21T13:00:34;5.72;;;0.90;;
76208;SDS011;64990;51.698;-0.292;2023-11-21T13:03:02;1.52;;;0.80;;
76208;SDS011;64990;51.698;-0.292;2023-11-21T13:05:36;2.05;;;0.95;;
76208;SDS011;64990;51.698;-0.292;2023-11-21T13:08:07;4.38;;;2.08;;
76208;SDS011;64990;51.698;-0.292;2023-11-21T13:10:35;3.15;;;1.08;;
76208;SDS011;64990;51.698;-0.292;2023-11-21T13:13:02;1.48;;;0.90;;
76208;SDS011;64990;51.698;-0.292;2023-11-21T13:15:30;6.03;;;1.27;;
76208;SDS011;64990;51.698;-0.292;2023-11-21T13:17:59;3.17;;;0.60;;
76208;SDS011;64990;51.698;-0.292;2023-11-21T13:20:25;4.25;;;1.20;;
76208;SDS011;64990;51.698;-0.292;2023-11-21T13:22:54;6.18;;;1.17;;
76208;SDS011;64990;51.698;-0.292;2023-11-21T13:25:26;1.53;;;0.77;;
76208;SDS011;64990;51.698;-0.292;2023-11-21T13:27:56;5.95;;;1.92;;
76208;SDS011;64990;51.698;-0.292;2023-11-21T13:30:22;3.63;;;1.30;;
76208;SDS011;64990;51.698;-0.292;2023-11-21T13:32:55;12.45;;;1.95;;
76208;SDS011;64990;51.698;-0.292;2023-11-21T13:35:27;13.13;;;1.70;;
76208;SDS011;64990;51.698;-0.292;2023-11-21T13:38:06;7.55;;;2.75;;
76208;SDS011;64990;51.698;-0.292;2023-11-21T13:40:34;3.80;;;1.60;;
76208;SDS011;64990;51.698;-0.292;2023-11-21T13:43:10;5.38;;;1.80;;
76208;SDS011;64990;51.698;-0.292;2023-11-21T13:45:38;9.40;;;1.70;;
76208;SDS011;64990;51.698;-0.292;2023-11-21T13:48:04;25.20;;;2.60;;
76208;SDS011;64990;51.698;-0.292;2023-11-21T13:50:35;10.85;;;3.22;;
76208;SDS011;64990;51.698;-0.292;2023-11-21T13:53:01;17.35;;;3.38;;
76208;SDS011;64990;51.698;-0.292;2023-11-21T13:55:44;24.88;;;2.78;;
76208;SDS011;64990;51.698;-0.292;2023-11-21T13:58:10;13.98;;;2.35;;
76208;SDS011;64990;51.698;-0.292;2023-11-21T14:00:43;9.60;;;2.65;;
76208;SDS011;64990;51.698;-0.292;2023-11-21T14:03:11;16.25;;;2.35;;
76208;SDS011;64990;51.698;-0.292;2023-11-21T14:05:47;13.32;;;1.70;;
76208;SDS011;64990;51.698;-0.292;2023-11-21T14:08:22;15.70;;;2.45;;
76208;SDS011;64990;51.698;-0.292;2023-11-21T14:10:53;9.80;;;2.00;;
76208;SDS011;64990;51.698;-0.292;2023-11-21T14:13:23;11.68;;;1.40;;
76208;SDS011;64990;51.698;-0.292;2023-11-21T14:15:50;8.43;;;2.15;;
76208;SDS011;64990;51.698;-0.292;2023-11-21T14:18:23;15.98;;;3.00;;
76208;SDS011;64990;51.698;-0.292;2023-11-21T14:20:56;13.77;;;3.15;;
76208;SDS011;64990;51.698;-0.292;2023-11-21T14:23:22;12.88;;;2.75;;
76208;SDS011;64990;51.698;-0.292;2023-11-21T14:25:48;23.83;;;2.58;;
76208;SDS011;64990;51.698;-0.292;2023-11-21T14:28:16;13.85;;;3.00;;
76208;SDS011;64990;51.698;-0.292;2023-11-21T14:30:42;4.45;;;1.23;;
76208;SDS011;64990;51.698;-0.292;2023-11-21T14:33:08;19.20;;;2.40;;
76208;SDS011;64990;51.698;-0.292;2023-11-21T14:35:36;14.15;;;3.70;;
76208;SDS011;64990;51.698;-0.292;2023-11-21T14:38:02;11.45;;;4.00;;
76208;SDS011;64990;51.698;-0.292;2023-11-21T14:40:30;14.85;;;2.80;;
76208;SDS011;64990;51.698;-0.292;2023-11-21T14:43:04;8.05;;;2.00;;
76208;SDS011;64990;51.698;-0.292;2023-11-21T14:45:31;9.63;;;1.92;;
76208;SDS011;64990;51.698;-0.292;2023-11-21T14:47:57;8.10;;;2.80;;
76208;SDS011;64990;51.698;-0.292;2023-11-21T14:50:51;12.50;;;3.08;;
76208;SDS011;64990;51.698;-0.292;2023-11-21T14:53:29;31.08;;;3.78;;